F/V Oiseau D Tempete — FHGL — position and weather

sailwx.info

Track history (hours):
 
Tides and Currents Weather Stations Pressure Air Temp Water Temp Dewpoint Dewpoint Depression Visibility Wind Speed Wind Dir Waves Ship Positions

F/V Oiseau D Tempete

Last reported at 2018-Jun-23 20:52 UTC. Time now 2018-Jun-24 12:51 UTC.
Position N 47°02' W 002°18'.

Length 15 m; draft 2 m.

Type: Fishing. MMSI: 227808000.

Date/timePositionNaut miles runAvg speedWind from/ knotsBaromVisibWave heightAir tempDewpointWater temp
2018-Jun-23 20:52N 47°02' W 002°18'0 0.2
2018-Jun-23 20:25N 47°02' W 002°18'2 0.0
2018-Jun-21 20:34N 47°01' W 002°20'1 9.5
2018-Jun-21 20:30N 47°02' W 002°20'1 1.3
2018-Jun-21 19:41N 47°02' W 002°18'0 0.0
2018-Jun-19 21:26N 47°02' W 002°18'0 0.2
2018-Jun-19 20:52N 47°02' W 002°18'3 7.4
2018-Jun-19 20:27N 47°01' W 002°22'27 7.0
2018-Jun-19 16:36N 46°49' W 002°58'0 0.7
2018-Jun-19 16:15N 46°49' W 002°58'4 2.2
2018-Jun-19 14:17N 46°49' W 003°04'5 3.9
2018-Jun-19 12:54N 46°52' W 003°11'1 2.3
2018-Jun-19 12:30N 46°52' W 003°12'0 0.5
2018-Jun-19 12:01N 46°52' W 003°12'2 1.9
2018-Jun-19 10:57N 46°51' W 003°15'8 1.7
2018-Jun-19 06:19N 46°51' W 003°03'1 2.8
2018-Jun-19 05:49N 46°52' W 003°01'1 0.4
2018-Jun-19 02:52N 46°52' W 002°60'1 1.7
2018-Jun-19 02:06N 46°50' W 003°00'0 0.1
2018-Jun-19 01:57N 46°50' W 003°00'7 0.5
2018-Jun-18 11:52N 46°52' W 003°10'1 1.4
2018-Jun-18 10:50N 46°53' W 003°08'3 6.4
2018-Jun-18 10:25N 46°52' W 003°12'1 0.6
2018-Jun-18 09:02N 46°52' W 003°12'0 2.2
2018-Jun-18 08:55N 46°52' W 003°12'1 2.6
2018-Jun-18 08:30N 46°52' W 003°11'1 2.5
2018-Jun-18 08:00N 46°51' W 003°12'1 2.1
2018-Jun-18 07:27N 46°51' W 003°14'5 1.5
2018-Jun-18 04:12N 46°53' W 003°07'29 4.9
2018-Jun-17 22:16N 46°60' W 002°26'3 9.9
2018-Jun-17 22:01N 47°01' W 002°22'3 4.9
2018-Jun-17 21:23N 47°02' W 002°18'0 0.0
2018-Jun-17 21:00N 47°02' W 002°18'0 0.0
2018-Jun-16 19:53N 47°02' W 002°18'36 1.0
2018-Jun-15 08:44N 46°50' W 003°08'2 3.8
2018-Jun-15 08:15N 46°51' W 003°09'2 6.0
2018-Jun-15 07:58N 46°52' W 003°11'4 7.6
2018-Jun-15 07:30N 46°52' W 003°16'3 1.8
2018-Jun-15 05:56N 46°51' W 003°12'3 5.6
2018-Jun-15 05:23N 46°53' W 003°09'3 6.9
2018-Jun-15 05:00N 46°50' W 003°09'32 3.7
2018-Jun-14 20:12N 47°01' W 002°25'2 9.9
2018-Jun-14 20:00N 47°01' W 002°22'3 0.2
2018-Jun-14 07:13N 47°02' W 002°18'0 0.2
2018-Jun-14 06:51N 47°02' W 002°18'0 0.2
2018-Jun-14 06:30N 47°01' W 002°18'0 0.1
2018-Jun-14 06:00N 47°01' W 002°18'0 0.2
2018-Jun-14 05:28N 47°02' W 002°18'  
Track history (hours):
 
Tides and Currents Weather Stations Pressure Air Temp Water Temp Dewpoint Dewpoint Depression Visibility Wind Speed Wind Dir Waves Ship Positions

F/V Oiseau D Tempete

Last reported at 2018-Jun-23 20:52 UTC. Time now 2018-Jun-24 12:51 UTC.
Position N 47°02' W 002°18'.

Length 15 m; draft 2 m.

Type: Fishing. MMSI: 227808000.

Date/timePositionNaut miles runAvg speedWind from/ knotsBaromVisibWave heightAir tempDewpointWater temp
2018-Jun-23 20:52N 47°02' W 002°18'0 0.2
2018-Jun-23 20:25N 47°02' W 002°18'2 0.0
2018-Jun-21 20:34N 47°01' W 002°20'1 9.5
2018-Jun-21 20:30N 47°02' W 002°20'1 1.3
2018-Jun-21 19:41N 47°02' W 002°18'0 0.0
2018-Jun-19 21:26N 47°02' W 002°18'0 0.2
2018-Jun-19 20:52N 47°02' W 002°18'3 7.4
2018-Jun-19 20:27N 47°01' W 002°22'27 7.0
2018-Jun-19 16:36N 46°49' W 002°58'0 0.7
2018-Jun-19 16:15N 46°49' W 002°58'4 2.2
2018-Jun-19 14:17N 46°49' W 003°04'5 3.9
2018-Jun-19 12:54N 46°52' W 003°11'1 2.3
2018-Jun-19 12:30N 46°52' W 003°12'0 0.5
2018-Jun-19 12:01N 46°52' W 003°12'2 1.9
2018-Jun-19 10:57N 46°51' W 003°15'8 1.7
2018-Jun-19 06:19N 46°51' W 003°03'1 2.8
2018-Jun-19 05:49N 46°52' W 003°01'1 0.4
2018-Jun-19 02:52N 46°52' W 002°60'1 1.7
2018-Jun-19 02:06N 46°50' W 003°00'0 0.1
2018-Jun-19 01:57N 46°50' W 003°00'7 0.5
2018-Jun-18 11:52N 46°52' W 003°10'1 1.4
2018-Jun-18 10:50N 46°53' W 003°08'3 6.4
2018-Jun-18 10:25N 46°52' W 003°12'1 0.6
2018-Jun-18 09:02N 46°52' W 003°12'0 2.2
2018-Jun-18 08:55N 46°52' W 003°12'1 2.6
2018-Jun-18 08:30N 46°52' W 003°11'1 2.5
2018-Jun-18 08:00N 46°51' W 003°12'1 2.1
2018-Jun-18 07:27N 46°51' W 003°14'5 1.5
2018-Jun-18 04:12N 46°53' W 003°07'29 4.9
2018-Jun-17 22:16N 46°60' W 002°26'3 9.9
2018-Jun-17 22:01N 47°01' W 002°22'3 4.9
2018-Jun-17 21:23N 47°02' W 002°18'0 0.0
2018-Jun-17 21:00N 47°02' W 002°18'0 0.0
2018-Jun-16 19:53N 47°02' W 002°18'36 1.0
2018-Jun-15 08:44N 46°50' W 003°08'2 3.8
2018-Jun-15 08:15N 46°51' W 003°09'2 6.0
2018-Jun-15 07:58N 46°52' W 003°11'4 7.6
2018-Jun-15 07:30N 46°52' W 003°16'3 1.8
2018-Jun-15 05:56N 46°51' W 003°12'3 5.6
2018-Jun-15 05:23N 46°53' W 003°09'3 6.9
2018-Jun-15 05:00N 46°50' W 003°09'32 3.7
2018-Jun-14 20:12N 47°01' W 002°25'2 9.9
2018-Jun-14 20:00N 47°01' W 002°22'3 0.2
2018-Jun-14 07:13N 47°02' W 002°18'0 0.2
2018-Jun-14 06:51N 47°02' W 002°18'0 0.2
2018-Jun-14 06:30N 47°01' W 002°18'0 0.1
2018-Jun-14 06:00N 47°01' W 002°18'0 0.2
2018-Jun-14 05:28N 47°02' W 002°18'  

Dump ship's entire track history